createdAt,value
2022-09-06T00:01:20.010Z,20.50
2022-09-06T00:03:46.695Z,20.50
2022-09-06T00:06:15.432Z,20.50
2022-09-06T00:08:43.573Z,20.60
2022-09-06T00:11:10.553Z,20.60
2022-09-06T00:13:37.639Z,20.60
2022-09-06T00:16:08.451Z,20.60
2022-09-06T00:18:35.205Z,20.60
2022-09-06T00:21:01.824Z,20.70
2022-09-06T00:23:28.372Z,20.70
2022-09-06T00:26:01.302Z,20.60
2022-09-06T00:28:28.064Z,20.70
2022-09-06T00:30:54.728Z,20.70
2022-09-06T00:33:22.388Z,20.70
2022-09-06T00:35:49.267Z,20.70
2022-09-06T00:38:15.919Z,20.70
2022-09-06T00:40:42.512Z,20.60
2022-09-06T00:43:09.082Z,20.60
2022-09-06T00:45:35.682Z,20.60
2022-09-06T00:48:04.834Z,20.60
2022-09-06T00:50:31.434Z,20.60
2022-09-06T00:52:58.073Z,20.70
2022-09-06T00:55:26.181Z,20.60
2022-09-06T00:57:53.232Z,20.60
2022-09-06T01:00:20.775Z,20.60
2022-09-06T01:02:48.378Z,21.00
2022-09-06T01:05:15.551Z,21.70
2022-09-06T01:07:49.048Z,22.20
2022-09-06T01:10:32.590Z,22.60
2022-09-06T01:13:09.846Z,22.90
2022-09-06T01:15:45.986Z,22.90
2022-09-06T01:18:30.699Z,22.90
2022-09-06T01:21:20.962Z,22.90
2022-09-06T01:24:06.007Z,22.80
2022-09-06T01:26:32.559Z,22.80
2022-09-06T01:28:59.231Z,22.80
2022-09-06T01:31:39.036Z,22.80
2022-09-06T01:34:05.614Z,22.70
2022-09-06T01:37:08.944Z,22.60
2022-09-06T01:39:36.410Z,22.50
2022-09-06T01:42:12.153Z,22.50
2022-09-06T01:44:41.021Z,22.40
2022-09-06T01:47:17.491Z,22.30
2022-09-06T01:49:55.771Z,22.10
2022-09-06T01:52:47.095Z,22.10
2022-09-06T01:55:23.016Z,22.10
2022-09-06T01:58:08.415Z,22.10
2022-09-06T02:00:39.526Z,22.20
2022-09-06T02:03:09.281Z,22.20
2022-09-06T02:05:59.267Z,22.10
2022-09-06T02:08:29.470Z,22.20
2022-09-06T02:11:01.376Z,22.40
2022-09-06T02:13:31.934Z,22.40
2022-09-06T02:16:01.544Z,22.30
2022-09-06T02:18:31.005Z,22.30
2022-09-06T02:20:58.580Z,22.40
2022-09-06T02:23:28.307Z,22.40
2022-09-06T02:25:57.455Z,22.40
2022-09-06T02:28:24.759Z,22.50
2022-09-06T02:30:55.951Z,22.60
2022-09-06T02:33:24.676Z,22.70
2022-09-06T02:35:52.892Z,22.70
2022-09-06T02:38:21.820Z,22.50
2022-09-06T02:40:49.205Z,22.40
2022-09-06T02:43:15.766Z,22.10
2022-09-06T02:45:42.432Z,21.80
2022-09-06T02:48:09.054Z,21.50
2022-09-06T02:50:37.002Z,21.40
2022-09-06T02:53:11.174Z,21.30
2022-09-06T02:55:38.409Z,21.20
2022-09-06T02:58:06.518Z,21.00
2022-09-06T03:00:33.109Z,20.80
2022-09-06T03:02:59.956Z,20.60
2022-09-06T03:05:27.329Z,20.50
2022-09-06T03:07:54.426Z,20.40
2022-09-06T03:10:21.307Z,20.20
2022-09-06T03:12:47.935Z,20.10
2022-09-06T03:15:15.458Z,19.90
2022-09-06T03:17:42.536Z,19.80
2022-09-06T03:20:09.994Z,19.70
2022-09-06T03:22:37.013Z,19.70
2022-09-06T03:25:03.721Z,19.60
2022-09-06T03:27:30.345Z,19.50
2022-09-06T03:29:56.967Z,19.50
2022-09-06T03:32:23.635Z,19.40
2022-09-06T03:34:50.244Z,19.30
2022-09-06T03:37:16.944Z,19.30
2022-09-06T03:39:43.852Z,19.20
2022-09-06T03:42:10.441Z,19.20
2022-09-06T03:44:37.044Z,19.10
2022-09-06T03:47:03.975Z,19.10
2022-09-06T03:49:30.619Z,19.10
2022-09-06T03:51:57.191Z,19.10
2022-09-06T03:54:24.581Z,19.00
2022-09-06T03:56:51.375Z,19.00
2022-09-06T03:59:17.945Z,19.00
2022-09-06T04:01:44.610Z,18.80
2022-09-06T04:04:11.237Z,18.90
2022-09-06T04:06:37.806Z,18.70
2022-09-06T04:09:04.389Z,18.70
2022-09-06T04:11:30.952Z,18.60
2022-09-06T04:13:57.558Z,18.60
2022-09-06T04:16:24.178Z,18.60
2022-09-06T04:18:50.836Z,18.70
2022-09-06T04:21:17.453Z,18.60
2022-09-06T04:23:44.092Z,18.70
2022-09-06T04:26:10.847Z,18.70
2022-09-06T04:28:37.472Z,18.60
2022-09-06T04:31:05.224Z,18.60
2022-09-06T04:33:33.370Z,18.60
2022-09-06T04:36:00.732Z,18.50
2022-09-06T04:38:28.434Z,18.50
2022-09-06T04:40:58.147Z,18.50
2022-09-06T04:43:24.822Z,18.40
2022-09-06T04:45:51.513Z,18.40
2022-09-06T04:48:18.199Z,18.30
2022-09-06T04:50:44.840Z,18.40
2022-09-06T04:53:11.639Z,18.40
2022-09-06T04:55:38.353Z,18.30
2022-09-06T04:58:05.747Z,18.40
2022-09-06T05:00:33.223Z,18.30
2022-09-06T05:02:59.929Z,18.40
2022-09-06T05:05:26.588Z,18.40
2022-09-06T05:07:53.531Z,18.40
2022-09-06T05:10:20.443Z,18.40
2022-09-06T05:12:50.891Z,18.50
2022-09-06T05:15:18.130Z,18.50
2022-09-06T05:17:44.814Z,18.60
2022-09-06T05:20:11.771Z,18.70
2022-09-06T05:22:38.879Z,18.90
2022-09-06T05:25:05.963Z,19.00
2022-09-06T05:27:32.529Z,19.10
2022-09-06T05:29:59.102Z,19.10
2022-09-06T05:32:25.671Z,19.20
2022-09-06T05:34:52.326Z,19.30
2022-09-06T05:37:18.939Z,19.40
2022-09-06T05:39:45.618Z,19.50
2022-09-06T05:42:14.930Z,19.60
2022-09-06T05:44:45.158Z,19.70
2022-09-06T05:47:11.734Z,19.80
2022-09-06T05:49:38.298Z,19.90
2022-09-06T05:52:04.938Z,19.90
2022-09-06T05:54:31.633Z,19.90
2022-09-06T05:56:58.212Z,20.00
2022-09-06T05:59:24.952Z,20.10
2022-09-06T06:01:52.531Z,20.20
2022-09-06T06:04:19.204Z,20.30
2022-09-06T06:06:46.687Z,20.40
2022-09-06T06:09:13.552Z,20.50
2022-09-06T06:11:40.845Z,20.60
2022-09-06T06:14:07.683Z,20.80
2022-09-06T06:16:34.393Z,20.90
2022-09-06T06:19:01.106Z,21.10
2022-09-06T06:21:31.868Z,21.60
2022-09-06T06:23:59.336Z,21.90
2022-09-06T06:26:26.642Z,22.50
2022-09-06T06:28:53.599Z,23.70
2022-09-06T06:31:22.298Z,24.60
2022-09-06T06:33:49.223Z,25.00
2022-09-06T06:36:15.750Z,25.90
2022-09-06T06:38:43.069Z,26.70
2022-09-06T06:41:10.728Z,26.70
2022-09-06T06:43:38.085Z,26.40
2022-09-06T06:46:08.923Z,26.00
2022-09-06T06:48:37.045Z,25.30
2022-09-06T06:51:03.951Z,24.80
2022-09-06T06:53:30.631Z,24.60
2022-09-06T06:55:57.218Z,24.60
2022-09-06T06:58:23.953Z,24.40
2022-09-06T07:00:50.635Z,24.30
2022-09-06T07:03:18.245Z,24.40
2022-09-06T07:08:33.705Z,25.40
2022-09-06T07:11:00.366Z,27.10
2022-09-06T07:13:27.073Z,28.40
2022-09-06T07:16:05.744Z,29.30
2022-09-06T07:18:32.388Z,30.30
2022-09-06T07:26:32.673Z,31.30
2022-09-06T07:29:00.729Z,31.30
2022-09-06T07:34:14.545Z,32.10
2022-09-06T07:36:41.172Z,33.50
2022-09-06T07:39:07.746Z,34.40
2022-09-06T07:41:34.314Z,34.70
2022-09-06T07:44:00.915Z,34.70
2022-09-06T07:46:27.548Z,34.60
2022-09-06T07:48:54.197Z,34.00
2022-09-06T07:51:21.412Z,34.20
2022-09-06T07:53:57.907Z,34.90
2022-09-06T07:56:33.959Z,35.10
2022-09-06T07:59:00.514Z,35.00
2022-09-06T08:01:31.610Z,35.20
2022-09-06T08:03:58.897Z,35.30
2022-09-06T08:06:26.190Z,35.20
2022-09-06T08:11:23.883Z,36.40
2022-09-06T08:13:51.791Z,37.10
2022-09-06T08:16:18.532Z,35.60
2022-09-06T08:18:45.147Z,35.40
2022-09-06T08:21:13.368Z,35.30
2022-09-06T08:23:42.773Z,35.70
2022-09-06T08:26:09.326Z,36.40
2022-09-06T08:28:35.951Z,36.70
2022-09-06T08:31:09.675Z,37.00
2022-09-06T08:33:36.732Z,36.60
2022-09-06T08:36:04.172Z,35.90
2022-09-06T08:38:31.006Z,34.90
2022-09-06T08:41:16.155Z,34.80
2022-09-06T08:46:47.368Z,36.10
2022-09-06T08:49:14.359Z,37.40
2022-09-06T08:51:49.257Z,37.30
2022-09-06T08:54:21.445Z,37.30
2022-09-06T08:57:01.271Z,37.50
2022-09-06T08:59:28.311Z,37.00
2022-09-06T09:02:10.277Z,36.80
2022-09-06T09:04:39.099Z,36.60
2022-09-06T09:07:20.952Z,37.30
2022-09-06T09:09:47.716Z,37.50
2022-09-06T09:12:16.124Z,36.80
2022-09-06T09:14:45.253Z,37.10
2022-09-06T09:17:22.385Z,37.60
2022-09-06T09:19:49.269Z,37.10
2022-09-06T09:22:18.222Z,37.10
2022-09-06T09:24:47.371Z,37.90
2022-09-06T09:27:18.111Z,37.70
2022-09-06T09:32:41.918Z,37.50
2022-09-06T09:35:23.522Z,38.50
2022-09-06T09:38:07.790Z,38.30
2022-09-06T09:40:42.642Z,38.50
2022-09-06T09:43:11.151Z,38.80
2022-09-06T09:45:37.949Z,38.90
2022-09-06T09:48:34.128Z,38.70
2022-09-06T09:51:23.871Z,38.90
2022-09-06T09:53:54.830Z,39.30
2022-09-06T09:56:29.539Z,40.00
2022-09-06T09:58:56.994Z,40.10
2022-09-06T10:01:28.907Z,40.20
2022-09-06T10:07:10.176Z,39.80
2022-09-06T10:09:38.781Z,40.80
2022-09-06T10:12:05.421Z,40.90
2022-09-06T10:14:39.521Z,40.60
2022-09-06T10:17:06.202Z,40.60
2022-09-06T10:19:36.001Z,40.60
2022-09-06T10:22:08.915Z,40.60
2022-09-06T10:24:47.097Z,40.10
2022-09-06T10:27:14.497Z,39.00
2022-09-06T10:29:48.102Z,37.60
2022-09-06T10:32:31.221Z,38.10
2022-09-06T10:34:57.837Z,38.00
2022-09-06T10:37:41.409Z,37.60
2022-09-06T10:40:08.724Z,37.00
2022-09-06T10:42:56.216Z,36.50
2022-09-06T10:45:35.340Z,36.80
2022-09-06T10:48:11.312Z,37.20
2022-09-06T10:50:44.291Z,37.70
2022-09-06T10:53:13.669Z,38.40
2022-09-06T10:55:41.373Z,38.80
2022-09-06T10:58:19.051Z,39.40
2022-09-06T11:00:47.521Z,40.00
2022-09-06T11:06:10.705Z,39.40
2022-09-06T11:11:19.549Z,38.70
2022-09-06T11:13:47.209Z,38.40
2022-09-06T11:16:26.045Z,38.30
2022-09-06T11:19:02.877Z,38.60
2022-09-06T11:21:48.396Z,38.70
2022-09-06T11:24:35.373Z,38.80
2022-09-06T11:27:10.096Z,39.30
2022-09-06T11:29:39.806Z,39.40
2022-09-06T11:32:26.426Z,38.20
2022-09-06T11:34:54.636Z,36.90
2022-09-06T11:37:28.233Z,36.50
2022-09-06T11:40:27.206Z,35.80
2022-09-06T11:42:56.023Z,35.50
2022-09-06T11:46:01.528Z,35.50
2022-09-06T11:48:34.987Z,35.10
2022-09-06T11:51:01.726Z,35.40
2022-09-06T11:53:31.046Z,36.30
2022-09-06T11:56:00.613Z,37.30
2022-09-06T11:58:48.577Z,38.20
2022-09-06T12:01:16.632Z,38.60
2022-09-06T12:06:32.402Z,38.80
2022-09-06T12:08:59.453Z,39.00
2022-09-06T12:11:30.339Z,39.20
2022-09-06T12:13:57.962Z,39.60
2022-09-06T12:16:24.677Z,39.70
2022-09-06T12:18:51.463Z,39.80
2022-09-06T12:21:37.128Z,39.30
2022-09-06T12:24:04.305Z,39.60
2022-09-06T12:26:55.688Z,40.00
2022-09-06T12:29:26.451Z,40.10
2022-09-06T12:32:01.614Z,39.80
2022-09-06T12:34:32.056Z,39.70
2022-09-06T12:36:58.659Z,40.10
2022-09-06T12:39:25.625Z,39.80
2022-09-06T12:41:55.337Z,39.30
2022-09-06T12:44:28.638Z,39.30
2022-09-06T12:46:55.907Z,39.20
2022-09-06T12:49:23.493Z,39.10
2022-09-06T12:51:50.420Z,39.20
2022-09-06T12:54:17.059Z,39.30
2022-09-06T12:56:43.757Z,38.60
2022-09-06T12:59:12.404Z,38.80
2022-09-06T13:01:39.172Z,38.80
2022-09-06T13:04:16.222Z,38.40
2022-09-06T13:06:45.741Z,38.30
2022-09-06T13:09:14.362Z,38.20
2022-09-06T13:11:44.756Z,38.10
2022-09-06T13:14:14.483Z,37.20
2022-09-06T13:16:48.286Z,36.60
2022-09-06T13:19:16.545Z,36.60
2022-09-06T13:21:44.821Z,36.60
2022-09-06T13:24:18.750Z,36.80
2022-09-06T13:26:45.620Z,36.90
2022-09-06T13:29:21.772Z,36.10
2022-09-06T13:31:52.733Z,35.90
2022-09-06T13:34:32.819Z,35.60
2022-09-06T13:37:01.101Z,35.70
2022-09-06T13:39:32.106Z,36.00
2022-09-06T13:42:03.217Z,36.30
2022-09-06T13:44:31.391Z,36.60
2022-09-06T13:46:58.493Z,36.30
2022-09-06T13:49:25.470Z,36.00
2022-09-06T13:51:52.972Z,35.10
2022-09-06T13:54:20.195Z,34.80
2022-09-06T13:56:48.404Z,34.90
2022-09-06T13:59:15.127Z,35.10
2022-09-06T14:01:43.087Z,34.20
2022-09-06T14:04:11.198Z,34.10
2022-09-06T14:06:37.851Z,33.60
2022-09-06T14:09:07.765Z,33.70
2022-09-06T14:11:35.264Z,33.00
2022-09-06T14:14:01.859Z,32.40
2022-09-06T14:16:28.812Z,31.90
2022-09-06T14:18:55.447Z,31.50
2022-09-06T14:21:22.335Z,31.20
2022-09-06T14:23:50.953Z,30.70
2022-09-06T14:26:18.865Z,30.50
2022-09-06T14:28:45.601Z,30.50
2022-09-06T14:31:13.697Z,30.50
2022-09-06T14:33:40.460Z,30.50
2022-09-06T14:36:11.893Z,30.40
2022-09-06T14:38:39.043Z,30.30
2022-09-06T14:41:06.911Z,30.10
2022-09-06T14:43:34.202Z,29.80
2022-09-06T14:46:08.030Z,29.70
2022-09-06T14:48:37.181Z,29.60
2022-09-06T14:51:26.005Z,29.50
2022-09-06T14:53:57.271Z,29.40
2022-09-06T14:56:23.989Z,29.40
2022-09-06T14:58:50.907Z,29.40
2022-09-06T15:01:22.480Z,29.30
2022-09-06T15:03:51.851Z,29.20
2022-09-06T15:06:20.278Z,28.90
2022-09-06T15:08:48.395Z,28.70
2022-09-06T15:11:15.820Z,28.60
2022-09-06T15:13:42.858Z,28.50
2022-09-06T15:16:10.258Z,28.40
2022-09-06T15:18:37.178Z,28.50
2022-09-06T15:21:14.619Z,28.50
2022-09-06T15:23:42.992Z,28.50
2022-09-06T15:26:11.389Z,28.40
2022-09-06T15:28:39.309Z,28.30
2022-09-06T15:31:06.697Z,28.20
2022-09-06T15:33:34.241Z,28.20
2022-09-06T15:36:06.020Z,28.20
2022-09-06T15:38:33.358Z,28.00
2022-09-06T15:41:07.915Z,28.00
2022-09-06T15:43:35.850Z,28.00
2022-09-06T15:46:02.808Z,27.90
2022-09-06T15:48:29.882Z,27.80
2022-09-06T15:50:56.814Z,27.80
2022-09-06T15:53:23.649Z,27.80
2022-09-06T15:55:57.416Z,27.80
2022-09-06T15:58:24.496Z,27.80
2022-09-06T16:01:10.276Z,27.70
2022-09-06T16:03:38.130Z,27.70
2022-09-06T16:08:55.948Z,27.70
2022-09-06T16:11:22.702Z,27.60
2022-09-06T16:13:49.477Z,27.70
2022-09-06T16:16:16.673Z,27.70
2022-09-06T16:18:44.432Z,27.70
2022-09-06T16:21:16.612Z,27.80
2022-09-06T16:23:47.430Z,27.90
2022-09-06T16:26:15.965Z,27.80
2022-09-06T16:28:47.330Z,27.60
2022-09-06T16:31:14.195Z,27.50
2022-09-06T16:33:40.909Z,27.30
2022-09-06T16:36:09.918Z,27.20
2022-09-06T16:38:37.172Z,27.00
2022-09-06T16:41:21.604Z,27.00
2022-09-06T16:43:52.295Z,26.90
2022-09-06T16:46:20.078Z,26.80
2022-09-06T16:48:57.057Z,26.70
2022-09-06T16:51:24.869Z,26.60
2022-09-06T16:53:52.174Z,26.60
2022-09-06T16:56:20.800Z,26.50
2022-09-06T16:58:51.778Z,26.40
2022-09-06T17:01:18.935Z,26.40
2022-09-06T17:03:45.641Z,26.30
2022-09-06T17:06:13.094Z,26.20
2022-09-06T17:08:40.081Z,26.20
2022-09-06T17:11:09.952Z,26.10
2022-09-06T17:13:36.590Z,26.10
2022-09-06T17:16:22.536Z,26.00
2022-09-06T17:18:49.564Z,25.90
2022-09-06T17:21:16.313Z,25.80
2022-09-06T17:23:43.057Z,25.80
2022-09-06T17:26:09.795Z,25.70
2022-09-06T17:28:37.144Z,25.60
2022-09-06T17:31:05.952Z,25.50
2022-09-06T17:33:33.167Z,25.40
2022-09-06T17:36:07.205Z,25.30
2022-09-06T17:38:34.485Z,25.30
2022-09-06T17:41:02.182Z,25.20
2022-09-06T17:43:29.057Z,25.20
2022-09-06T17:45:55.779Z,25.20
2022-09-06T17:48:22.552Z,25.10
2022-09-06T17:50:49.974Z,25.10
2022-09-06T17:53:16.606Z,25.00
2022-09-06T17:55:44.810Z,24.90
2022-09-06T17:58:11.769Z,24.90
2022-09-06T18:00:40.141Z,24.80
2022-09-06T18:03:07.354Z,24.80
2022-09-06T18:05:40.311Z,24.80
2022-09-06T18:08:07.804Z,24.60
2022-09-06T18:10:36.417Z,24.60
2022-09-06T18:13:04.084Z,24.50
2022-09-06T18:15:30.762Z,24.40
2022-09-06T18:17:58.007Z,24.30
2022-09-06T18:20:27.899Z,24.30
2022-09-06T18:22:54.942Z,24.20
2022-09-06T18:25:21.553Z,24.10
2022-09-06T18:27:48.740Z,24.10
2022-09-06T18:30:16.035Z,24.20
2022-09-06T18:32:43.614Z,24.20
2022-09-06T18:35:10.210Z,24.10
2022-09-06T18:37:36.955Z,24.10
2022-09-06T18:40:04.806Z,24.00
2022-09-06T18:42:31.993Z,24.00
2022-09-06T18:44:58.812Z,23.90
2022-09-06T18:47:25.450Z,23.80
2022-09-06T18:49:53.282Z,23.80
2022-09-06T18:52:20.755Z,23.70
2022-09-06T18:54:48.981Z,23.60
2022-09-06T18:57:16.440Z,23.60
2022-09-06T18:59:43.433Z,23.50
2022-09-06T19:02:10.241Z,23.40
2022-09-06T19:04:36.950Z,23.40
2022-09-06T19:07:03.893Z,23.30
2022-09-06T19:09:30.601Z,23.20
2022-09-06T19:11:57.218Z,23.20
2022-09-06T19:14:23.976Z,23.10
2022-09-06T19:16:53.878Z,23.10
2022-09-06T19:19:21.761Z,23.10
2022-09-06T19:21:48.605Z,23.20
2022-09-06T19:24:16.010Z,23.10
2022-09-06T19:26:43.941Z,23.20
2022-09-06T19:29:17.744Z,23.10
2022-09-06T19:31:45.358Z,23.00
2022-09-06T19:34:13.548Z,22.90
2022-09-06T19:36:40.225Z,23.00
2022-09-06T19:39:07.964Z,22.90
2022-09-06T19:41:36.900Z,22.90
2022-09-06T19:44:05.817Z,22.90
2022-09-06T19:46:32.997Z,22.80
2022-09-06T19:49:00.435Z,22.80
2022-09-06T19:51:27.171Z,22.80
2022-09-06T19:53:54.770Z,22.80
2022-09-06T19:56:22.568Z,22.80
2022-09-06T19:58:53.706Z,22.70
2022-09-06T20:01:20.565Z,22.70
2022-09-06T20:03:47.687Z,22.80
2022-09-06T20:06:14.302Z,22.70
2022-09-06T20:08:41.349Z,22.70
2022-09-06T20:11:09.128Z,22.70
2022-09-06T20:13:37.088Z,22.60
2022-09-06T20:16:04.653Z,22.60
2022-09-06T20:18:37.905Z,22.60
2022-09-06T20:21:04.822Z,22.60
2022-09-06T20:23:31.989Z,22.50
2022-09-06T20:26:02.858Z,22.50
2022-09-06T20:28:29.922Z,22.40
2022-09-06T20:31:23.159Z,22.30
2022-09-06T20:33:50.099Z,22.30
2022-09-06T20:36:17.329Z,22.20
2022-09-06T20:38:45.011Z,22.30
2022-09-06T20:41:13.021Z,22.30
2022-09-06T20:43:40.487Z,22.20
2022-09-06T20:46:14.823Z,22.10
2022-09-06T20:48:44.720Z,22.10
2022-09-06T20:51:18.924Z,22.10
2022-09-06T20:53:47.073Z,22.00
2022-09-06T20:56:14.863Z,22.00
2022-09-06T20:58:41.705Z,21.90
2022-09-06T21:01:11.086Z,21.90
2022-09-06T21:03:39.221Z,21.90
2022-09-06T21:06:09.703Z,21.90
2022-09-06T21:08:40.708Z,21.80
2022-09-06T21:11:09.911Z,21.80
2022-09-06T21:13:36.757Z,21.70
2022-09-06T21:16:04.023Z,21.70
2022-09-06T21:18:31.323Z,21.60
2022-09-06T21:21:02.994Z,21.60
2022-09-06T21:23:30.764Z,21.60
2022-09-06T21:26:01.498Z,21.50
2022-09-06T21:28:28.836Z,21.50
2022-09-06T21:31:08.387Z,21.50
2022-09-06T21:33:35.955Z,21.50
2022-09-06T21:36:06.727Z,21.50
2022-09-06T21:38:34.223Z,21.50
2022-09-06T21:41:01.743Z,21.50
2022-09-06T21:43:28.397Z,21.50
2022-09-06T21:45:55.044Z,21.50
2022-09-06T21:48:21.700Z,21.50
2022-09-06T21:50:48.502Z,21.50
2022-09-06T21:53:15.438Z,21.50
2022-09-06T21:55:42.521Z,21.40
2022-09-06T21:58:09.747Z,21.40
2022-09-06T22:00:36.474Z,21.40
2022-09-06T22:03:03.241Z,21.40
2022-09-06T22:05:30.048Z,21.30
2022-09-06T22:07:56.756Z,21.30
2022-09-06T22:10:24.235Z,21.30
2022-09-06T22:12:50.976Z,21.40
2022-09-06T22:15:18.969Z,21.30
2022-09-06T22:17:45.585Z,21.30
2022-09-06T22:20:12.278Z,21.30
2022-09-06T22:22:38.915Z,21.30
2022-09-06T22:25:05.777Z,21.30
2022-09-06T22:27:32.349Z,21.40
2022-09-06T22:29:58.995Z,21.50
2022-09-06T22:32:25.703Z,21.50
2022-09-06T22:34:52.484Z,21.60
2022-09-06T22:37:19.066Z,21.70
2022-09-06T22:39:46.332Z,21.60
2022-09-06T22:42:12.997Z,21.60
2022-09-06T22:44:40.568Z,21.60
2022-09-06T22:47:07.370Z,21.50
2022-09-06T22:49:33.937Z,21.50
2022-09-06T22:52:00.481Z,21.40
2022-09-06T22:54:27.056Z,21.30
2022-09-06T22:56:53.606Z,21.30
2022-09-06T22:59:20.209Z,21.20
2022-09-06T23:01:47.690Z,21.10
2022-09-06T23:04:14.357Z,21.00
2022-09-06T23:06:41.234Z,21.00
2022-09-06T23:09:07.867Z,21.00
2022-09-06T23:11:34.502Z,21.10
2022-09-06T23:14:01.218Z,21.10
2022-09-06T23:16:28.266Z,21.20
2022-09-06T23:18:55.396Z,21.20
2022-09-06T23:21:23.417Z,21.20
2022-09-06T23:23:51.035Z,21.20
2022-09-06T23:26:21.824Z,21.20
2022-09-06T23:28:56.263Z,21.30
2022-09-06T23:31:24.029Z,21.20
2022-09-06T23:33:54.236Z,21.20
2022-09-06T23:36:20.941Z,21.20
2022-09-06T23:38:47.860Z,21.20
2022-09-06T23:41:14.766Z,21.20
2022-09-06T23:43:42.246Z,21.10
2022-09-06T23:46:09.721Z,21.10
2022-09-06T23:48:36.990Z,21.10
2022-09-06T23:51:04.099Z,21.10
2022-09-06T23:53:30.857Z,21.10
2022-09-06T23:55:57.511Z,21.20
2022-09-06T23:58:24.295Z,21.20
